sensor_id;sensor_type;location;lat;lon;timestamp;temperature;humidity
14000;DHT22;7075;53.574;10.054;2022-09-17T00:00:57;12.50;99.90
14000;DHT22;7075;53.574;10.054;2022-09-17T00:03:24;12.50;99.90
14000;DHT22;7075;53.574;10.054;2022-09-17T00:06:01;12.50;99.90
14000;DHT22;7075;53.574;10.054;2022-09-17T00:08:26;12.50;99.90
14000;DHT22;7075;53.574;10.054;2022-09-17T00:10:52;12.60;99.90
14000;DHT22;7075;53.574;10.054;2022-09-17T00:13:18;12.60;99.90
14000;DHT22;7075;53.574;10.054;2022-09-17T00:15:45;12.50;99.90
14000;DHT22;7075;53.574;10.054;2022-09-17T00:18:12;12.50;99.90
14000;DHT22;7075;53.574;10.054;2022-09-17T00:20:41;12.50;99.90
14000;DHT22;7075;53.574;10.054;2022-09-17T00:23:08;12.50;99.90
14000;DHT22;7075;53.574;10.054;2022-09-17T00:25:37;12.60;99.90
14000;DHT22;7075;53.574;10.054;2022-09-17T00:28:02;12.60;99.90
14000;DHT22;7075;53.574;10.054;2022-09-17T00:30:28;12.50;99.90
14000;DHT22;7075;53.574;10.054;2022-09-17T00:32:54;12.60;99.90
14000;DHT22;7075;53.574;10.054;2022-09-17T00:35:26;12.50;99.90
14000;DHT22;7075;53.574;10.054;2022-09-17T00:37:52;12.50;99.90
14000;DHT22;7075;53.574;10.054;2022-09-17T00:40:18;12.60;99.90
14000;DHT22;7075;53.574;10.054;2022-09-17T00:42:44;12.60;99.90
14000;DHT22;7075;53.574;10.054;2022-09-17T00:45:11;12.60;99.90
14000;DHT22;7075;53.574;10.054;2022-09-17T00:47:59;12.60;99.90
14000;DHT22;7075;53.574;10.054;2022-09-17T00:50:35;12.60;99.90
14000;DHT22;7075;53.574;10.054;2022-09-17T00:53:11;12.60;99.90
14000;DHT22;7075;53.574;10.054;2022-09-17T00:55:41;12.50;99.90
14000;DHT22;7075;53.574;10.054;2022-09-17T00:58:10;12.50;99.90
14000;DHT22;7075;53.574;10.054;2022-09-17T01:00:36;12.50;99.90
14000;DHT22;7075;53.574;10.054;2022-09-17T01:03:02;12.50;99.90
14000;DHT22;7075;53.574;10.054;2022-09-17T01:05:34;12.50;99.90
14000;DHT22;7075;53.574;10.054;2022-09-17T01:08:08;12.50;99.90
14000;DHT22;7075;53.574;10.054;2022-09-17T01:11:24;12.50;99.90
14000;DHT22;7075;53.574;10.054;2022-09-17T01:14:11;12.50;99.90
14000;DHT22;7075;53.574;10.054;2022-09-17T01:22:51;12.40;99.90
14000;DHT22;7075;53.574;10.054;2022-09-17T01:25:30;12.40;99.90
14000;DHT22;7075;53.574;10.054;2022-09-17T01:31:21;12.40;99.90
14000;DHT22;7075;53.574;10.054;2022-09-17T01:36:39;12.30;99.90
14000;DHT22;7075;53.574;10.054;2022-09-17T01:39:36;12.30;99.90
14000;DHT22;7075;53.574;10.054;2022-09-17T01:44:54;12.30;99.90
14000;DHT22;7075;53.574;10.054;2022-09-17T01:47:29;12.20;99.90
14000;DHT22;7075;53.574;10.054;2022-09-17T01:50:08;12.30;99.90
14000;DHT22;7075;53.574;10.054;2022-09-17T01:52:38;12.30;99.90
14000;DHT22;7075;53.574;10.054;2022-09-17T01:55:07;12.30;99.90
14000;DHT22;7075;53.574;10.054;2022-09-17T02:00:57;12.30;99.90
14000;DHT22;7075;53.574;10.054;2022-09-17T02:03:30;12.30;99.90
14000;DHT22;7075;53.574;10.054;2022-09-17T02:06:03;12.30;99.90
14000;DHT22;7075;53.574;10.054;2022-09-17T02:08:43;12.20;99.90
14000;DHT22;7075;53.574;10.054;2022-09-17T02:11:12;12.20;99.90
14000;DHT22;7075;53.574;10.054;2022-09-17T02:13:59;12.20;99.90
14000;DHT22;7075;53.574;10.054;2022-09-17T02:16:29;12.20;99.90
14000;DHT22;7075;53.574;10.054;2022-09-17T02:22:02;12.20;99.90
14000;DHT22;7075;53.574;10.054;2022-09-17T02:27:29;12.20;99.90
14000;DHT22;7075;53.574;10.054;2022-09-17T02:29:56;12.20;99.90
14000;DHT22;7075;53.574;10.054;2022-09-17T02:32:22;12.20;99.90
14000;DHT22;7075;53.574;10.054;2022-09-17T02:34:49;12.20;99.90
14000;DHT22;7075;53.574;10.054;2022-09-17T02:37:15;12.20;99.90
14000;DHT22;7075;53.574;10.054;2022-09-17T02:39:41;12.20;99.90
14000;DHT22;7075;53.574;10.054;2022-09-17T02:50:54;12.20;99.90
14000;DHT22;7075;53.574;10.054;2022-09-17T02:53:40;12.20;99.90
14000;DHT22;7075;53.574;10.054;2022-09-17T02:56:39;12.20;99.90
14000;DHT22;7075;53.574;10.054;2022-09-17T02:59:39;12.20;99.90
14000;DHT22;7075;53.574;10.054;2022-09-17T03:02:19;12.20;99.90
14000;DHT22;7075;53.574;10.054;2022-09-17T03:04:48;12.20;99.90
14000;DHT22;7075;53.574;10.054;2022-09-17T03:07:16;12.20;99.90
14000;DHT22;7075;53.574;10.054;2022-09-17T03:09:43;12.10;99.90
14000;DHT22;7075;53.574;10.054;2022-09-17T03:12:12;12.10;99.90
14000;DHT22;7075;53.574;10.054;2022-09-17T03:14:38;12.10;99.90
14000;DHT22;7075;53.574;10.054;2022-09-17T03:17:03;12.10;99.90
14000;DHT22;7075;53.574;10.054;2022-09-17T03:19:29;12.10;99.90
14000;DHT22;7075;53.574;10.054;2022-09-17T03:21:55;12.00;99.90
14000;DHT22;7075;53.574;10.054;2022-09-17T03:24:20;12.00;99.90
14000;DHT22;7075;53.574;10.054;2022-09-17T03:26:46;12.00;99.90
14000;DHT22;7075;53.574;10.054;2022-09-17T03:29:14;12.00;99.90
14000;DHT22;7075;53.574;10.054;2022-09-17T03:31:39;12.00;99.90
14000;DHT22;7075;53.574;10.054;2022-09-17T03:34:05;12.00;99.90
14000;DHT22;7075;53.574;10.054;2022-09-17T03:36:31;12.10;99.90
14000;DHT22;7075;53.574;10.054;2022-09-17T03:38:57;12.10;99.90
14000;DHT22;7075;53.574;10.054;2022-09-17T03:41:24;12.10;99.90
14000;DHT22;7075;53.574;10.054;2022-09-17T03:43:50;12.10;99.90
14000;DHT22;7075;53.574;10.054;2022-09-17T03:46:16;12.00;99.90
14000;DHT22;7075;53.574;10.054;2022-09-17T03:48:42;12.00;99.90
14000;DHT22;7075;53.574;10.054;2022-09-17T03:51:07;12.00;99.90
14000;DHT22;7075;53.574;10.054;2022-09-17T03:53:33;12.00;99.90
14000;DHT22;7075;53.574;10.054;2022-09-17T03:56:00;12.00;99.90
14000;DHT22;7075;53.574;10.054;2022-09-17T03:58:27;11.90;99.90
14000;DHT22;7075;53.574;10.054;2022-09-17T04:00:53;12.00;99.90
14000;DHT22;7075;53.574;10.054;2022-09-17T04:03:21;12.00;99.90
14000;DHT22;7075;53.574;10.054;2022-09-17T04:05:46;11.90;99.90
14000;DHT22;7075;53.574;10.054;2022-09-17T04:08:12;11.90;99.90
14000;DHT22;7075;53.574;10.054;2022-09-17T04:10:38;11.90;99.90
14000;DHT22;7075;53.574;10.054;2022-09-17T04:13:03;11.90;99.90
14000;DHT22;7075;53.574;10.054;2022-09-17T04:15:29;11.90;99.90
14000;DHT22;7075;53.574;10.054;2022-09-17T04:17:55;11.80;99.90
14000;DHT22;7075;53.574;10.054;2022-09-17T04:20:24;11.80;99.90
14000;DHT22;7075;53.574;10.054;2022-09-17T04:22:51;11.80;99.90
14000;DHT22;7075;53.574;10.054;2022-09-17T04:25:17;11.70;99.90
14000;DHT22;7075;53.574;10.054;2022-09-17T04:27:43;11.70;99.90
14000;DHT22;7075;53.574;10.054;2022-09-17T04:30:10;11.70;99.90
14000;DHT22;7075;53.574;10.054;2022-09-17T04:32:36;11.70;99.90
14000;DHT22;7075;53.574;10.054;2022-09-17T04:35:01;11.70;99.90
14000;DHT22;7075;53.574;10.054;2022-09-17T04:37:27;11.70;99.90
14000;DHT22;7075;53.574;10.054;2022-09-17T04:39:53;11.70;99.90
14000;DHT22;7075;53.574;10.054;2022-09-17T04:42:19;11.70;99.90
14000;DHT22;7075;53.574;10.054;2022-09-17T04:44:44;11.70;99.90
14000;DHT22;7075;53.574;10.054;2022-09-17T04:47:10;11.70;99.90
14000;DHT22;7075;53.574;10.054;2022-09-17T04:49:35;11.70;99.90
14000;DHT22;7075;53.574;10.054;2022-09-17T04:52:01;11.60;99.90
14000;DHT22;7075;53.574;10.054;2022-09-17T04:54:27;11.60;99.90
14000;DHT22;7075;53.574;10.054;2022-09-17T04:56:52;11.60;99.90
14000;DHT22;7075;53.574;10.054;2022-09-17T04:59:18;11.60;99.90
14000;DHT22;7075;53.574;10.054;2022-09-17T05:01:43;11.50;99.90
14000;DHT22;7075;53.574;10.054;2022-09-17T05:04:09;11.50;99.90
14000;DHT22;7075;53.574;10.054;2022-09-17T05:06:35;11.50;99.90
14000;DHT22;7075;53.574;10.054;2022-09-17T05:09:01;11.50;99.90
14000;DHT22;7075;53.574;10.054;2022-09-17T05:11:27;11.50;99.90
14000;DHT22;7075;53.574;10.054;2022-09-17T05:13:52;11.50;99.90
14000;DHT22;7075;53.574;10.054;2022-09-17T05:16:18;11.50;99.90
14000;DHT22;7075;53.574;10.054;2022-09-17T05:18:44;11.50;99.90
14000;DHT22;7075;53.574;10.054;2022-09-17T05:21:10;11.50;99.90
14000;DHT22;7075;53.574;10.054;2022-09-17T05:23:36;11.50;99.90
14000;DHT22;7075;53.574;10.054;2022-09-17T05:26:02;11.60;99.90
14000;DHT22;7075;53.574;10.054;2022-09-17T05:28:28;11.50;99.90
14000;DHT22;7075;53.574;10.054;2022-09-17T05:30:53;11.50;99.90
14000;DHT22;7075;53.574;10.054;2022-09-17T05:33:19;11.60;99.90
14000;DHT22;7075;53.574;10.054;2022-09-17T05:35:45;11.60;99.90
14000;DHT22;7075;53.574;10.054;2022-09-17T05:38:11;11.60;99.90
14000;DHT22;7075;53.574;10.054;2022-09-17T05:40:37;11.60;99.90
14000;DHT22;7075;53.574;10.054;2022-09-17T05:43:04;11.60;99.90
14000;DHT22;7075;53.574;10.054;2022-09-17T05:45:33;11.60;99.90
14000;DHT22;7075;53.574;10.054;2022-09-17T05:48:00;11.60;99.90
14000;DHT22;7075;53.574;10.054;2022-09-17T05:50:27;11.70;99.90
14000;DHT22;7075;53.574;10.054;2022-09-17T05:52:53;11.60;99.90
14000;DHT22;7075;53.574;10.054;2022-09-17T05:55:19;11.70;99.90
14000;DHT22;7075;53.574;10.054;2022-09-17T05:57:47;11.60;99.90
14000;DHT22;7075;53.574;10.054;2022-09-17T06:00:12;11.60;99.90
14000;DHT22;7075;53.574;10.054;2022-09-17T06:02:39;11.70;99.90
14000;DHT22;7075;53.574;10.054;2022-09-17T06:05:05;11.60;99.90
14000;DHT22;7075;53.574;10.054;2022-09-17T06:07:30;11.60;99.90
14000;DHT22;7075;53.574;10.054;2022-09-17T06:09:58;11.70;99.90
14000;DHT22;7075;53.574;10.054;2022-09-17T06:12:24;11.70;99.90
14000;DHT22;7075;53.574;10.054;2022-09-17T06:14:49;11.70;99.90
14000;DHT22;7075;53.574;10.054;2022-09-17T06:17:15;11.70;99.90
14000;DHT22;7075;53.574;10.054;2022-09-17T06:19:40;11.60;99.90
14000;DHT22;7075;53.574;10.054;2022-09-17T06:22:06;11.60;99.90
14000;DHT22;7075;53.574;10.054;2022-09-17T06:24:32;11.60;99.90
14000;DHT22;7075;53.574;10.054;2022-09-17T06:26:57;11.60;99.90
14000;DHT22;7075;53.574;10.054;2022-09-17T06:29:23;11.60;99.90
14000;DHT22;7075;53.574;10.054;2022-09-17T06:31:49;11.50;99.90
14000;DHT22;7075;53.574;10.054;2022-09-17T06:34:15;11.50;99.90
14000;DHT22;7075;53.574;10.054;2022-09-17T06:36:40;11.50;99.90
14000;DHT22;7075;53.574;10.054;2022-09-17T06:39:06;11.50;99.90
14000;DHT22;7075;53.574;10.054;2022-09-17T06:41:31;11.50;99.90
14000;DHT22;7075;53.574;10.054;2022-09-17T06:43:57;11.50;99.90
14000;DHT22;7075;53.574;10.054;2022-09-17T06:46:23;11.50;99.90
14000;DHT22;7075;53.574;10.054;2022-09-17T06:48:49;11.40;99.90
14000;DHT22;7075;53.574;10.054;2022-09-17T06:51:14;11.40;99.90
14000;DHT22;7075;53.574;10.054;2022-09-17T06:53:40;11.50;99.90
14000;DHT22;7075;53.574;10.054;2022-09-17T06:56:07;11.50;99.90
14000;DHT22;7075;53.574;10.054;2022-09-17T06:58:35;11.50;99.90
14000;DHT22;7075;53.574;10.054;2022-09-17T07:01:06;11.60;99.90
14000;DHT22;7075;53.574;10.054;2022-09-17T07:03:32;11.60;99.90
14000;DHT22;7075;53.574;10.054;2022-09-17T07:05:58;11.60;99.90
14000;DHT22;7075;53.574;10.054;2022-09-17T07:08:24;11.60;99.90
14000;DHT22;7075;53.574;10.054;2022-09-17T07:10:50;11.60;99.90
14000;DHT22;7075;53.574;10.054;2022-09-17T07:13:16;11.70;99.90
14000;DHT22;7075;53.574;10.054;2022-09-17T07:15:41;11.70;99.90
14000;DHT22;7075;53.574;10.054;2022-09-17T07:18:08;11.80;99.90
14000;DHT22;7075;53.574;10.054;2022-09-17T07:20:35;11.80;99.90
14000;DHT22;7075;53.574;10.054;2022-09-17T07:23:00;11.90;99.90
14000;DHT22;7075;53.574;10.054;2022-09-17T07:25:26;12.00;99.90
14000;DHT22;7075;53.574;10.054;2022-09-17T07:27:52;12.10;99.90
14000;DHT22;7075;53.574;10.054;2022-09-17T07:30:19;12.10;99.90
14000;DHT22;7075;53.574;10.054;2022-09-17T07:32:45;12.10;99.90
14000;DHT22;7075;53.574;10.054;2022-09-17T07:35:10;12.20;99.90
14000;DHT22;7075;53.574;10.054;2022-09-17T07:37:36;12.10;99.90
14000;DHT22;7075;53.574;10.054;2022-09-17T07:40:02;12.10;99.90
14000;DHT22;7075;53.574;10.054;2022-09-17T07:42:31;12.20;99.90
14000;DHT22;7075;53.574;10.054;2022-09-17T07:44:57;12.10;99.90
14000;DHT22;7075;53.574;10.054;2022-09-17T07:47:23;12.10;99.90
14000;DHT22;7075;53.574;10.054;2022-09-17T07:49:48;12.10;99.90
14000;DHT22;7075;53.574;10.054;2022-09-17T07:52:14;12.00;99.90
14000;DHT22;7075;53.574;10.054;2022-09-17T07:54:39;12.00;99.90
14000;DHT22;7075;53.574;10.054;2022-09-17T07:57:05;11.90;99.90
14000;DHT22;7075;53.574;10.054;2022-09-17T07:59:31;11.90;99.90
14000;DHT22;7075;53.574;10.054;2022-09-17T08:01:56;12.00;99.90
14000;DHT22;7075;53.574;10.054;2022-09-17T08:04:22;12.00;99.90
14000;DHT22;7075;53.574;10.054;2022-09-17T08:06:47;12.10;99.90
14000;DHT22;7075;53.574;10.054;2022-09-17T08:09:14;12.20;99.90
14000;DHT22;7075;53.574;10.054;2022-09-17T08:11:41;12.30;99.90
14000;DHT22;7075;53.574;10.054;2022-09-17T08:14:11;12.30;99.90
14000;DHT22;7075;53.574;10.054;2022-09-17T08:16:37;12.40;99.90
14000;DHT22;7075;53.574;10.054;2022-09-17T08:19:02;12.40;99.90
14000;DHT22;7075;53.574;10.054;2022-09-17T08:21:28;12.60;99.90
14000;DHT22;7075;53.574;10.054;2022-09-17T08:23:54;12.60;99.90
14000;DHT22;7075;53.574;10.054;2022-09-17T08:26:21;12.60;99.90
14000;DHT22;7075;53.574;10.054;2022-09-17T08:28:49;12.70;99.90
14000;DHT22;7075;53.574;10.054;2022-09-17T08:31:17;12.70;99.90
14000;DHT22;7075;53.574;10.054;2022-09-17T08:33:43;12.70;99.90
14000;DHT22;7075;53.574;10.054;2022-09-17T08:36:11;12.70;99.90
14000;DHT22;7075;53.574;10.054;2022-09-17T08:38:36;12.70;99.90
14000;DHT22;7075;53.574;10.054;2022-09-17T08:46:24;12.70;99.90
14000;DHT22;7075;53.574;10.054;2022-09-17T08:49:06;12.70;99.90
14000;DHT22;7075;53.574;10.054;2022-09-17T08:54:49;12.80;99.90
14000;DHT22;7075;53.574;10.054;2022-09-17T09:00:15;12.90;99.90
14000;DHT22;7075;53.574;10.054;2022-09-17T09:05:24;13.00;99.90
14000;DHT22;7075;53.574;10.054;2022-09-17T09:07:55;12.90;99.90
14000;DHT22;7075;53.574;10.054;2022-09-17T09:10:25;12.80;99.90
14000;DHT22;7075;53.574;10.054;2022-09-17T09:12:53;12.80;99.90
14000;DHT22;7075;53.574;10.054;2022-09-17T09:18:22;12.90;99.90
14000;DHT22;7075;53.574;10.054;2022-09-17T09:21:09;12.90;99.90
14000;DHT22;7075;53.574;10.054;2022-09-17T09:23:54;12.90;99.90
14000;DHT22;7075;53.574;10.054;2022-09-17T09:26:43;12.90;99.90
14000;DHT22;7075;53.574;10.054;2022-09-17T09:34:33;12.90;99.90
14000;DHT22;7075;53.574;10.054;2022-09-17T09:37:20;12.90;99.90
14000;DHT22;7075;53.574;10.054;2022-09-17T09:39:50;12.90;99.90
14000;DHT22;7075;53.574;10.054;2022-09-17T09:42:28;13.00;99.90
14000;DHT22;7075;53.574;10.054;2022-09-17T09:45:00;13.00;99.90
14000;DHT22;7075;53.574;10.054;2022-09-17T09:55:39;13.10;99.90
14000;DHT22;7075;53.574;10.054;2022-09-17T09:58:20;13.10;99.90
14000;DHT22;7075;53.574;10.054;2022-09-17T10:00:47;13.30;99.90
14000;DHT22;7075;53.574;10.054;2022-09-17T10:03:31;13.40;99.90
14000;DHT22;7075;53.574;10.054;2022-09-17T10:06:00;13.20;99.90
14000;DHT22;7075;53.574;10.054;2022-09-17T10:08:29;13.30;99.90
14000;DHT22;7075;53.574;10.054;2022-09-17T10:13:37;13.10;99.90
14000;DHT22;7075;53.574;10.054;2022-09-17T10:16:16;13.10;99.90
14000;DHT22;7075;53.574;10.054;2022-09-17T10:18:43;13.20;99.90
14000;DHT22;7075;53.574;10.054;2022-09-17T10:21:21;13.20;99.90
14000;DHT22;7075;53.574;10.054;2022-09-17T10:23:48;13.10;99.90
14000;DHT22;7075;53.574;10.054;2022-09-17T10:26:29;13.00;99.90
14000;DHT22;7075;53.574;10.054;2022-09-17T10:28:59;13.10;99.90
14000;DHT22;7075;53.574;10.054;2022-09-17T10:31:26;13.10;99.90
14000;DHT22;7075;53.574;10.054;2022-09-17T10:33:55;13.20;99.90
14000;DHT22;7075;53.574;10.054;2022-09-17T10:36:42;13.10;99.90
14000;DHT22;7075;53.574;10.054;2022-09-17T10:42:14;13.00;99.90
14000;DHT22;7075;53.574;10.054;2022-09-17T10:44:54;13.00;99.90
14000;DHT22;7075;53.574;10.054;2022-09-17T10:47:36;13.00;99.90
14000;DHT22;7075;53.574;10.054;2022-09-17T10:50:20;12.90;99.90
14000;DHT22;7075;53.574;10.054;2022-09-17T10:52:51;12.90;99.90
14000;DHT22;7075;53.574;10.054;2022-09-17T10:58:10;13.00;99.90
14000;DHT22;7075;53.574;10.054;2022-09-17T11:11:43;13.30;99.90
14000;DHT22;7075;53.574;10.054;2022-09-17T11:19:58;13.10;99.90
14000;DHT22;7075;53.574;10.054;2022-09-17T11:28:21;13.60;99.90
14000;DHT22;7075;53.574;10.054;2022-09-17T11:39:20;14.00;99.90
14000;DHT22;7075;53.574;10.054;2022-09-17T11:41:49;14.30;99.90
14000;DHT22;7075;53.574;10.054;2022-09-17T11:44:37;14.40;99.90
14000;DHT22;7075;53.574;10.054;2022-09-17T11:47:19;14.40;99.90
14000;DHT22;7075;53.574;10.054;2022-09-17T11:49:55;14.50;99.90
14000;DHT22;7075;53.574;10.054;2022-09-17T11:52:31;14.40;99.90
14000;DHT22;7075;53.574;10.054;2022-09-17T11:55:21;14.30;99.90
14000;DHT22;7075;53.574;10.054;2022-09-17T11:57:51;14.40;99.90
14000;DHT22;7075;53.574;10.054;2022-09-17T12:00:19;14.30;99.90
14000;DHT22;7075;53.574;10.054;2022-09-17T12:03:00;14.10;99.90
14000;DHT22;7075;53.574;10.054;2022-09-17T12:08:14;14.10;99.90
14000;DHT22;7075;53.574;10.054;2022-09-17T12:16:12;14.10;99.90
14000;DHT22;7075;53.574;10.054;2022-09-17T12:18:58;14.20;99.90
14000;DHT22;7075;53.574;10.054;2022-09-17T12:21:38;14.10;99.90
14000;DHT22;7075;53.574;10.054;2022-09-17T12:30:04;15.00;99.90
14000;DHT22;7075;53.574;10.054;2022-09-17T12:32:49;15.30;99.90
14000;DHT22;7075;53.574;10.054;2022-09-17T12:38:08;15.40;99.90
14000;DHT22;7075;53.574;10.054;2022-09-17T12:49:31;16.50;99.90
14000;DHT22;7075;53.574;10.054;2022-09-17T12:55:39;16.10;99.90
14000;DHT22;7075;53.574;10.054;2022-09-17T13:01:06;16.50;99.90
14000;DHT22;7075;53.574;10.054;2022-09-17T13:03:49;16.40;99.90
14000;DHT22;7075;53.574;10.054;2022-09-17T13:14:36;16.60;99.90
14000;DHT22;7075;53.574;10.054;2022-09-17T13:20:10;16.10;99.90
14000;DHT22;7075;53.574;10.054;2022-09-17T13:22:48;15.70;99.90
14000;DHT22;7075;53.574;10.054;2022-09-17T13:25:16;15.20;99.90
14000;DHT22;7075;53.574;10.054;2022-09-17T13:27:43;15.00;99.90
14000;DHT22;7075;53.574;10.054;2022-09-17T13:30:11;14.90;99.90
14000;DHT22;7075;53.574;10.054;2022-09-17T13:37:36;14.60;99.90
14000;DHT22;7075;53.574;10.054;2022-09-17T13:40:22;14.60;99.90
14000;DHT22;7075;53.574;10.054;2022-09-17T13:42:51;14.60;99.90
14000;DHT22;7075;53.574;10.054;2022-09-17T13:45:20;14.70;99.90
14000;DHT22;7075;53.574;10.054;2022-09-17T13:48:09;15.00;99.90
14000;DHT22;7075;53.574;10.054;2022-09-17T13:50:40;15.80;99.90
14000;DHT22;7075;53.574;10.054;2022-09-17T13:55:46;16.20;99.90
14000;DHT22;7075;53.574;10.054;2022-09-17T14:00:50;16.70;99.90
14000;DHT22;7075;53.574;10.054;2022-09-17T14:13:56;15.70;99.90
14000;DHT22;7075;53.574;10.054;2022-09-17T14:19:19;15.40;99.90
14000;DHT22;7075;53.574;10.054;2022-09-17T14:24:24;15.40;99.90
14000;DHT22;7075;53.574;10.054;2022-09-17T14:32:27;15.50;99.90
14000;DHT22;7075;53.574;10.054;2022-09-17T14:34:52;15.40;99.90
14000;DHT22;7075;53.574;10.054;2022-09-17T14:37:19;15.60;99.90
14000;DHT22;7075;53.574;10.054;2022-09-17T14:39:46;15.90;99.90
14000;DHT22;7075;53.574;10.054;2022-09-17T14:42:16;16.30;99.90
14000;DHT22;7075;53.574;10.054;2022-09-17T14:45:11;16.50;99.90
14000;DHT22;7075;53.574;10.054;2022-09-17T14:47:38;16.30;99.90
14000;DHT22;7075;53.574;10.054;2022-09-17T14:50:36;16.10;99.90
14000;DHT22;7075;53.574;10.054;2022-09-17T14:53:07;15.30;99.90
14000;DHT22;7075;53.574;10.054;2022-09-17T14:55:40;14.90;99.90
14000;DHT22;7075;53.574;10.054;2022-09-17T14:58:32;14.80;99.90
14000;DHT22;7075;53.574;10.054;2022-09-17T15:00:58;14.50;99.90
14000;DHT22;7075;53.574;10.054;2022-09-17T15:03:24;14.50;99.90
14000;DHT22;7075;53.574;10.054;2022-09-17T15:05:50;14.40;99.90
14000;DHT22;7075;53.574;10.054;2022-09-17T15:08:21;14.30;99.90
14000;DHT22;7075;53.574;10.054;2022-09-17T15:10:56;14.20;99.90
14000;DHT22;7075;53.574;10.054;2022-09-17T15:13:46;14.20;99.90
14000;DHT22;7075;53.574;10.054;2022-09-17T15:18:55;14.10;99.90
14000;DHT22;7075;53.574;10.054;2022-09-17T15:24:33;14.30;99.90
14000;DHT22;7075;53.574;10.054;2022-09-17T15:27:13;14.30;99.90
14000;DHT22;7075;53.574;10.054;2022-09-17T15:29:43;14.40;99.90
14000;DHT22;7075;53.574;10.054;2022-09-17T15:32:11;14.40;99.90
14000;DHT22;7075;53.574;10.054;2022-09-17T15:34:37;14.50;99.90
14000;DHT22;7075;53.574;10.054;2022-09-17T15:39:41;14.40;99.90
14000;DHT22;7075;53.574;10.054;2022-09-17T15:42:33;14.30;99.90
14000;DHT22;7075;53.574;10.054;2022-09-17T15:45:21;14.30;99.90
14000;DHT22;7075;53.574;10.054;2022-09-17T15:47:55;14.20;99.90
14000;DHT22;7075;53.574;10.054;2022-09-17T15:50:27;14.30;99.90
14000;DHT22;7075;53.574;10.054;2022-09-17T15:55:44;14.30;99.90
14000;DHT22;7075;53.574;10.054;2022-09-17T16:08:45;14.30;99.90
14000;DHT22;7075;53.574;10.054;2022-09-17T16:11:12;14.30;99.90
14000;DHT22;7075;53.574;10.054;2022-09-17T16:13:38;14.20;99.90
14000;DHT22;7075;53.574;10.054;2022-09-17T16:16:03;14.20;99.90
14000;DHT22;7075;53.574;10.054;2022-09-17T16:18:29;14.30;99.90
14000;DHT22;7075;53.574;10.054;2022-09-17T16:20:55;14.30;99.90
14000;DHT22;7075;53.574;10.054;2022-09-17T16:23:21;14.20;99.90
14000;DHT22;7075;53.574;10.054;2022-09-17T16:25:46;14.20;99.90
14000;DHT22;7075;53.574;10.054;2022-09-17T16:28:15;14.30;99.90
14000;DHT22;7075;53.574;10.054;2022-09-17T16:30:45;14.40;99.90
14000;DHT22;7075;53.574;10.054;2022-09-17T16:33:13;14.30;99.90
14000;DHT22;7075;53.574;10.054;2022-09-17T16:35:39;14.20;99.90
14000;DHT22;7075;53.574;10.054;2022-09-17T16:38:05;14.20;99.90
14000;DHT22;7075;53.574;10.054;2022-09-17T16:40:30;14.20;99.90
14000;DHT22;7075;53.574;10.054;2022-09-17T16:43:00;14.20;99.90
14000;DHT22;7075;53.574;10.054;2022-09-17T16:45:26;14.30;99.90
14000;DHT22;7075;53.574;10.054;2022-09-17T16:47:52;14.40;99.90
14000;DHT22;7075;53.574;10.054;2022-09-17T16:50:17;14.40;99.90
14000;DHT22;7075;53.574;10.054;2022-09-17T16:52:44;14.20;99.90
14000;DHT22;7075;53.574;10.054;2022-09-17T16:55:11;14.20;99.90
14000;DHT22;7075;53.574;10.054;2022-09-17T16:57:37;14.30;99.90
14000;DHT22;7075;53.574;10.054;2022-09-17T17:00:05;14.30;99.90
14000;DHT22;7075;53.574;10.054;2022-09-17T17:02:31;14.30;99.90
14000;DHT22;7075;53.574;10.054;2022-09-17T17:04:57;14.30;99.90
14000;DHT22;7075;53.574;10.054;2022-09-17T17:07:22;14.30;99.90
14000;DHT22;7075;53.574;10.054;2022-09-17T17:09:48;14.10;99.90
14000;DHT22;7075;53.574;10.054;2022-09-17T17:12:14;14.00;99.90
14000;DHT22;7075;53.574;10.054;2022-09-17T17:14:40;14.00;99.90
14000;DHT22;7075;53.574;10.054;2022-09-17T17:17:05;13.90;99.90
14000;DHT22;7075;53.574;10.054;2022-09-17T17:19:31;13.90;99.90
14000;DHT22;7075;53.574;10.054;2022-09-17T17:21:59;14.00;99.90
14000;DHT22;7075;53.574;10.054;2022-09-17T17:24:24;14.10;99.90
14000;DHT22;7075;53.574;10.054;2022-09-17T17:26:50;14.10;99.90
14000;DHT22;7075;53.574;10.054;2022-09-17T17:29:15;14.00;99.90
14000;DHT22;7075;53.574;10.054;2022-09-17T17:31:41;14.00;99.90
14000;DHT22;7075;53.574;10.054;2022-09-17T17:34:07;13.90;99.90
14000;DHT22;7075;53.574;10.054;2022-09-17T17:36:33;13.90;99.90
14000;DHT22;7075;53.574;10.054;2022-09-17T17:38:59;13.80;99.90
14000;DHT22;7075;53.574;10.054;2022-09-17T17:41:25;13.80;99.90
14000;DHT22;7075;53.574;10.054;2022-09-17T17:43:53;13.70;99.90
14000;DHT22;7075;53.574;10.054;2022-09-17T17:46:19;13.70;99.90
14000;DHT22;7075;53.574;10.054;2022-09-17T17:48:45;13.60;99.90
14000;DHT22;7075;53.574;10.054;2022-09-17T17:51:11;13.60;99.90
14000;DHT22;7075;53.574;10.054;2022-09-17T17:53:39;13.70;99.90
14000;DHT22;7075;53.574;10.054;2022-09-17T17:56:06;13.70;99.90
14000;DHT22;7075;53.574;10.054;2022-09-17T17:58:33;13.70;99.90
14000;DHT22;7075;53.574;10.054;2022-09-17T18:00:59;13.50;99.90
14000;DHT22;7075;53.574;10.054;2022-09-17T18:03:25;13.50;99.90
14000;DHT22;7075;53.574;10.054;2022-09-17T18:05:54;13.50;99.90
14000;DHT22;7075;53.574;10.054;2022-09-17T18:08:23;13.40;99.90
14000;DHT22;7075;53.574;10.054;2022-09-17T18:10:54;13.40;99.90
14000;DHT22;7075;53.574;10.054;2022-09-17T18:13:21;13.40;99.90
14000;DHT22;7075;53.574;10.054;2022-09-17T18:15:57;13.40;99.90
14000;DHT22;7075;53.574;10.054;2022-09-17T18:18:24;13.40;99.90
14000;DHT22;7075;53.574;10.054;2022-09-17T18:20:51;13.40;99.90
14000;DHT22;7075;53.574;10.054;2022-09-17T18:23:19;13.40;99.90
14000;DHT22;7075;53.574;10.054;2022-09-17T18:25:56;13.40;99.90
14000;DHT22;7075;53.574;10.054;2022-09-17T18:28:22;13.50;99.90
14000;DHT22;7075;53.574;10.054;2022-09-17T18:30:48;13.40;99.90
14000;DHT22;7075;53.574;10.054;2022-09-17T18:33:19;13.50;99.90
14000;DHT22;7075;53.574;10.054;2022-09-17T18:35:46;13.40;99.90
14000;DHT22;7075;53.574;10.054;2022-09-17T18:38:12;13.30;99.90
14000;DHT22;7075;53.574;10.054;2022-09-17T18:40:38;13.30;99.90
14000;DHT22;7075;53.574;10.054;2022-09-17T18:43:03;13.30;99.90
14000;DHT22;7075;53.574;10.054;2022-09-17T18:45:29;13.20;99.90
14000;DHT22;7075;53.574;10.054;2022-09-17T18:47:55;13.20;99.90
14000;DHT22;7075;53.574;10.054;2022-09-17T18:50:20;13.20;99.90
14000;DHT22;7075;53.574;10.054;2022-09-17T18:52:46;13.20;99.90
14000;DHT22;7075;53.574;10.054;2022-09-17T18:55:11;13.30;99.90
14000;DHT22;7075;53.574;10.054;2022-09-17T18:57:37;13.20;99.90
14000;DHT22;7075;53.574;10.054;2022-09-17T19:00:03;13.20;99.90
14000;DHT22;7075;53.574;10.054;2022-09-17T19:02:32;13.20;99.90
14000;DHT22;7075;53.574;10.054;2022-09-17T19:04:58;13.20;99.90